ADDS METAR Data INFO
IDs: Format: Raw Decoded Include TAF

Data at: 2345 UTC 15 Dec 2017

PAGM 152256Z AUTO 04021KT 10SM OVC020 M03/M07 A2929 RMK AO2 SLP924 T10331067 FZRANO
PAGM 152156Z AUTO 03020G26KT 10SM OVC018 M03/M07 A2932 RMK AO2 PK WND 03026/2151 SLP934 T10331067 FZRANO
PAGM 152056Z AUTO 05018KT 10SM OVC018 M03/M06 A2933 RMK AO2 SLP938 T10331061 58010 FZRANO
PAGM 151956Z AUTO 04019KT 10SM OVC018 M04/M07 A2934 RMK AO2 SLP942 T10391067 FZRANO
PAGM 151856Z AUTO 06019KT 10SM OVC020 M04/M07 A2935 RMK AO2 SLP946 T10391072 FZRANO
PAGM 151756Z AUTO 07021KT 10SM BKN022 OVC043 M04/M08 A2936 RMK AO2 SLP949 60000 T10441078 11044 21072 58025 FZRANO
PAGM 151656Z AUTO 06013KT 10SM OVC024 M05/M09 A2940 RMK AO2 SLP961 T10501089 FZRANO
PAGM 151556Z AUTO 06014KT 10SM OVC026 M05/M09 A2941 RMK AO2 SLP967 T10501094 FZRANO
PAGM 151544Z AUTO 06014KT 10SM BKN026 OVC120 M06/M10 A2942 RMK AO2 FZRANO
PAGM 151456Z AUTO 07010KT 10SM SCT028 BKN120 M07/M11 A2943 RMK AO2 SLP974 60000 T10671111 56013 FZRANO
PAGM 151356Z AUTO 08009KT 10SM OVC028 M07/M12 A2946 RMK AO2 SLP981 T10671117 FZRANO
PAGM 151256Z AUTO 10011KT 9SM OVC028 M06/M11 A2947 RMK AO2 UPB37E44SNB04E37B44E53 SLP987 P0000 T10611111 FZRANO
PAGM 151214Z AUTO 11003KT 9SM -SN OVC028 M07/M11 A2948 RMK AO2 SNB04 P0000 FZRANO
PAGM 151156Z AUTO 00000KT 10SM OVC030 M07/M12 A2948 RMK AO2 SLP989 T10721122 11067 21083 58003 FZRANO
PAGM 151056Z AUTO 13005KT 10SM SCT036 M08/M12 A2949 RMK AO2 SLP992 T10781122 FZRANO
PAGM 150956Z AUTO 13008KT 10SM OVC036 M07/M12 A2949 RMK AO2 SLP994 T10671117 FZRANO
PAGM 150856Z AUTO 14007KT 10SM OVC036 M07/M12 A2949 RMK AO2 SLP992 T10671122 410441072 58005 FZRANO
PAGM 150756Z AUTO 15009KT 10SM OVC036 M07/M12 A2950 RMK AO2 SLP995 T10671117 FZRANO
PAGM 150656Z AUTO 15009KT 10SM OVC034 M07/M11 A2950 RMK AO2 SLP996 T10721111 FZRANO
PAGM 150556Z AUTO 16010KT 10SM BKN034 M07/M12 A2950 RMK AO2 SLP997 60000 T10721117 11056 21072 53000 FZRANO
PAGM 150356Z AUTO 22006KT 10SM OVC036 M06/M12 A2950 RMK AO2 SLP995 T10561122 FZRANO
PAGM 150256Z AUTO 26009KT 10SM OVC034 M06/M12 A2950 RMK AO2 SLP997 60000 T10561122 56006 FZRANO
PAGM 150156Z AUTO 26011KT 10SM OVC034 M06/M12 A2950 RMK AO2 SLP998 T10561117 FZRANO
PAGM 150056Z AUTO 25009KT 10SM OVC032 M06/M12 A2951 RMK AO2 SNB2357E09B31E41 SLP001 P0000 T10611122 FZRANO
PAGM 142356Z AUTO 24011KT 220V280 10SM OVC034 M06/M11 A2952 RMK AO2 SNE21 SLP003 P0000 60000 T10561111 11056 21056 58003 FZRANO
PAGM 142256Z AUTO 26007KT 9SM -SN OVC032 M06/M11 A2953 RMK AO2 SNE30B47 SLP005 P0000 T10561111 FZRANO
PAGM 142156Z AUTO 26013KT 9SM -SN OVC032 M06/M11 A2953 RMK AO2 SNB03 SLP006 P0000 T10561106 FZRANO
PAGM 142056Z AUTO 28009G20KT 10SM OVC032 M06/M11 A2953 RMK AO2 SNB1958E26 SLP006 P0000 60000 T10561111 55002 FZRANO
PAGM 141956Z AUTO 27011KT 10SM FEW024 OVC034 M06/M12 A2953 RMK AO2 SNE40 SLP006 P0000 T10561117 FZRANO
PAGM 141856Z AUTO 28013KT 10SM -SN OVC032 M06/M11 A2953 RMK AO2 SNB04 SLP006 P0000 T10561106 FZRANO
PAGM 141756Z AUTO 30008G17KT 10SM OVC030 M06/M11 A2954 RMK AO2 SNE49 SLP009 P0000 60000 T10561111 11044 21056 58001 FZRANO
PAGM 141656Z AUTO 28012KT 9SM -SN OVC031 M05/M10 A2954 RMK AO2 SLP009 P0000 T10501100 FZRANO
PAGM 141604Z AUTO 27015KT 10SM -SN OVC031 M05/M10 A2954 RMK AO2 P0000 FZRANO
PAGM 141556Z AUTO 29014KT 9SM -SN OVC029 M05/M09 A2954 RMK AO2 SNE15B37 SLP010 P0000 T10501094 FZRANO
PAGM 141519Z AUTO 26017KT 9SM BKN029 OVC035 M05/M09 A2954 RMK AO2 SNE15 P0000 FZRANO
PAGM 141456Z AUTO 27015KT 10SM -SN OVC034 M04/M09 A2954 RMK AO2 SLP009 P0000 60000 T10441094 53002 FZRANO
PAGM 141419Z AUTO 29014KT 9SM -SN FEW021 SCT029 OVC034 M05/M09 A2954 RMK AO2 P0000 FZRANO
PAGM 141404Z AUTO 27015KT 9SM -SN SCT021 BKN029 OVC034 M05/M08 A2954 RMK AO2 P0000 FZRANO
PAGM 141356Z AUTO 26018KT 7SM -SN FEW019 SCT024 OVC034 M04/M08 A2953 RMK AO2 SLP007 P0000 T10441078 FZRANO
PAGM 141348Z AUTO 27016KT 9SM -SN FEW024 OVC034 M04/M08 A2954 RMK AO2 P0000 FZRANO
PAGM 141320Z AUTO 27016KT 9SM -SN FEW019 BKN029 OVC035 M04/M08 A2954 RMK AO2 P0000 FZRANO
PAGM 141256Z AUTO 25019G24KT 9SM -SN FEW027 OVC034 M04/M08 A2954 RMK AO2 SLP008 P0000 T10441078 FZRANO
PAGM 141204Z AUTO 26018KT 9SM -SN BKN025 OVC032 M04/M08 A2953 RMK AO2 P0000 FZRANO
PAGM 141156Z AUTO 27018KT 9SM -SN SCT025 OVC032 M04/M08 A2953 RMK AO2 SLP007 P0000 60000 T10441083 11039 21050 51002 FZRANO
PAGM 141151Z AUTO 26016KT 8SM -SN OVC030 M05/M08 A2953 RMK AO2 P0000 FZRANO